Louisville, Colorado
Current Conditions -  °F | °C
As of 7:15 AM on Thursday 27 Nov 2014 (Local Time) from KEIK Reporting Station
Clear Clear  
Wind Chill: 38°   Ceiling: Unl
Heat Index: 38°   Visibility: 10mi
Dew Point: 25°   Wind: 3mph
Humidity: 60%   Direction: 110°ESE
Pressure: 30.18"   Gusts: NA
Location:  39.98°N, 105.13°W
Report Text: KEIK 271415Z AUTO 11003KT 10SM CLR 03/M04 A3018 RMK AO2 T00331039
Loading
Personal Weather Stations






























Interactive Weather Map New forecast layout! Learn more

10-Day Weather Forecast

Advertisements
Track Severe Weather on mobile